createdAt,value
2018-12-12T00:00:02.930Z,2.83
2018-12-12T00:01:02.965Z,2.86
2018-12-12T00:02:02.920Z,2.87
2018-12-12T00:03:02.916Z,2.89
2018-12-12T00:04:02.973Z,2.86
2018-12-12T00:05:02.976Z,2.85
2018-12-12T00:06:03.106Z,2.82
2018-12-12T00:07:02.840Z,2.8
2018-12-12T00:08:02.987Z,2.76
2018-12-12T00:09:02.856Z,2.76
2018-12-12T00:10:02.952Z,2.76
2018-12-12T00:11:02.993Z,2.76
2018-12-12T00:12:02.879Z,2.76
2018-12-12T00:13:02.883Z,2.77
2018-12-12T00:14:03.009Z,2.78
2018-12-12T00:15:02.846Z,2.81
2018-12-12T00:16:03.001Z,2.82
2018-12-12T00:17:02.909Z,2.82
2018-12-12T00:18:02.988Z,2.82
2018-12-12T00:19:03.624Z,2.8
2018-12-12T00:20:03.309Z,2.81
2018-12-12T00:21:02.819Z,2.79
2018-12-12T00:22:02.869Z,2.81
2018-12-12T00:23:03.126Z,2.8
2018-12-12T00:24:03.130Z,2.8
2018-12-12T00:25:03.259Z,2.78
2018-12-12T00:26:02.975Z,2.77
2018-12-12T00:27:02.838Z,2.78
2018-12-12T00:28:03.097Z,2.77
2018-12-12T00:29:02.927Z,2.75
2018-12-12T00:30:03.598Z,2.73
2018-12-12T00:31:02.819Z,2.74
2018-12-12T00:32:02.978Z,2.75
2018-12-12T00:33:02.958Z,2.72
2018-12-12T00:34:03.063Z,2.74
2018-12-12T00:35:02.969Z,2.72
2018-12-12T00:36:02.896Z,2.74
2018-12-12T00:37:02.836Z,2.75
2018-12-12T00:38:02.842Z,2.76
2018-12-12T00:39:02.997Z,2.75
2018-12-12T00:40:02.997Z,2.75
2018-12-12T00:41:03.017Z,2.75
2018-12-12T00:42:02.782Z,2.75
2018-12-12T00:43:02.894Z,2.76
2018-12-12T00:44:02.897Z,2.75
2018-12-12T00:45:02.937Z,2.75
2018-12-12T00:46:02.743Z,2.76
2018-12-12T00:47:02.905Z,2.74
2018-12-12T00:48:02.982Z,2.74
2018-12-12T00:49:02.816Z,2.75
2018-12-12T00:50:03.013Z,2.73
2018-12-12T00:51:02.978Z,2.73
2018-12-12T00:52:02.989Z,2.72
2018-12-12T00:53:03.363Z,2.71
2018-12-12T00:54:02.902Z,2.7
2018-12-12T00:55:02.881Z,2.7
2018-12-12T00:56:02.951Z,2.7
2018-12-12T00:57:02.891Z,2.69
2018-12-12T00:58:02.895Z,2.69
2018-12-12T00:59:03.002Z,2.68
2018-12-12T01:00:03.027Z,2.66
2018-12-12T01:01:02.901Z,2.68
2018-12-12T01:02:02.959Z,2.66
2018-12-12T01:03:03.034Z,2.68
2018-12-12T01:04:02.824Z,2.64
2018-12-12T01:05:02.980Z,2.64
2018-12-12T01:06:03.003Z,2.64
2018-12-12T01:07:02.927Z,2.63
2018-12-12T01:08:03.306Z,2.63
2018-12-12T01:09:03.149Z,2.59
2018-12-12T01:10:03.016Z,2.62
2018-12-12T01:11:02.989Z,2.6
2018-12-12T01:12:02.942Z,2.6
2018-12-12T01:13:03.033Z,2.59
2018-12-12T01:14:03.043Z,2.59
2018-12-12T01:15:03.569Z,2.59
2018-12-12T01:16:02.924Z,2.58
2018-12-12T01:17:02.993Z,2.58
2018-12-12T01:18:02.842Z,2.58
2018-12-12T01:19:02.874Z,2.57
2018-12-12T01:20:02.795Z,2.57
2018-12-12T01:21:03.503Z,2.55
2018-12-12T01:22:02.911Z,2.54
2018-12-12T01:23:02.883Z,2.5
2018-12-12T01:24:03.130Z,2.51
2018-12-12T01:25:02.861Z,2.51
2018-12-12T01:26:02.892Z,2.51
2018-12-12T01:27:02.837Z,2.51
2018-12-12T01:28:02.959Z,2.49
2018-12-12T01:29:03.169Z,2.46
2018-12-12T01:30:02.992Z,2.47
2018-12-12T01:31:02.728Z,2.48
2018-12-12T01:32:02.815Z,2.51
2018-12-12T01:33:02.856Z,2.52
2018-12-12T01:34:02.840Z,2.55
2018-12-12T01:35:02.775Z,2.56
2018-12-12T01:36:02.782Z,2.54
2018-12-12T01:37:02.871Z,2.56
2018-12-12T01:38:02.847Z,2.54
2018-12-12T01:39:02.820Z,2.57
2018-12-12T01:40:02.856Z,2.57
2018-12-12T01:41:02.766Z,2.57
2018-12-12T01:42:02.753Z,2.57
2018-12-12T01:43:02.806Z,2.58
2018-12-12T01:44:02.899Z,2.57
2018-12-12T01:45:02.772Z,2.56
2018-12-12T01:46:02.782Z,2.57
2018-12-12T01:47:02.789Z,2.56
2018-12-12T01:48:02.807Z,2.56
2018-12-12T01:49:02.784Z,2.56
2018-12-12T01:50:02.880Z,2.56
2018-12-12T01:51:02.711Z,2.56
2018-12-12T01:52:02.792Z,2.57
2018-12-12T01:53:02.795Z,2.57
2018-12-12T01:54:03.194Z,2.58
2018-12-12T01:55:02.755Z,2.57
2018-12-12T01:56:03.483Z,2.58
2018-12-12T01:57:03.523Z,2.58
2018-12-12T01:58:03.023Z,2.58
2018-12-12T01:59:03.029Z,2.56
2018-12-12T02:00:02.877Z,2.56
2018-12-12T02:01:03.603Z,2.56
2018-12-12T02:02:03.026Z,2.53
2018-12-12T02:03:02.750Z,2.55
2018-12-12T02:04:02.732Z,2.53
2018-12-12T02:05:02.865Z,2.52
2018-12-12T02:06:02.798Z,2.53
2018-12-12T02:07:03.114Z,2.53
2018-12-12T02:08:02.665Z,2.53
2018-12-12T02:09:02.742Z,2.51
2018-12-12T02:10:03.021Z,2.52
2018-12-12T02:11:02.695Z,2.52
2018-12-12T02:12:02.725Z,2.54
2018-12-12T02:13:02.732Z,2.53
2018-12-12T02:14:02.879Z,2.55
2018-12-12T02:15:03.116Z,2.54
2018-12-12T02:16:03.000Z,2.58
2018-12-12T02:17:02.743Z,2.55
2018-12-12T02:18:02.937Z,2.56
2018-12-12T02:19:02.900Z,2.58
2018-12-12T02:20:02.867Z,2.58
2018-12-12T02:21:02.756Z,2.59
2018-12-12T02:22:02.965Z,2.59
2018-12-12T02:23:03.094Z,2.59
2018-12-12T02:24:02.826Z,2.63
2018-12-12T02:25:02.836Z,2.6
2018-12-12T02:26:02.699Z,2.63
2018-12-12T02:27:02.757Z,2.63
2018-12-12T02:28:03.068Z,2.64
2018-12-12T02:29:02.683Z,2.64
2018-12-12T02:30:03.061Z,2.64
2018-12-12T02:31:02.839Z,2.65
2018-12-12T02:32:02.707Z,2.64
2018-12-12T02:33:02.695Z,2.66
2018-12-12T02:34:02.752Z,2.66
2018-12-12T02:35:02.734Z,2.69
2018-12-12T02:36:02.934Z,2.67
2018-12-12T02:37:02.996Z,2.69
2018-12-12T02:38:02.709Z,2.69
2018-12-12T02:39:03.164Z,2.69
2018-12-12T02:40:02.919Z,2.68
2018-12-12T02:41:02.716Z,2.68
2018-12-12T02:42:02.787Z,2.69
2018-12-12T02:43:02.894Z,2.67
2018-12-12T02:44:02.691Z,2.66
2018-12-12T02:45:02.761Z,2.64
2018-12-12T02:46:02.697Z,2.65
2018-12-12T02:47:02.863Z,2.65
2018-12-12T02:48:02.757Z,2.64
2018-12-12T02:49:02.737Z,2.63
2018-12-12T02:50:02.922Z,2.63
2018-12-12T02:51:02.915Z,2.62
2018-12-12T02:52:02.854Z,2.61
2018-12-12T02:53:02.842Z,2.61
2018-12-12T02:54:02.710Z,2.59
2018-12-12T02:55:02.708Z,2.62
2018-12-12T02:56:02.927Z,2.62
2018-12-12T02:57:02.932Z,2.62
2018-12-12T02:58:02.988Z,2.6
2018-12-12T02:59:02.760Z,2.6
2018-12-12T03:00:02.754Z,2.61
2018-12-12T03:01:02.893Z,2.63
2018-12-12T03:02:02.781Z,2.63
2018-12-12T03:03:02.742Z,2.63
2018-12-12T03:04:02.866Z,2.63
2018-12-12T03:05:03.401Z,2.62
2018-12-12T03:06:03.478Z,2.62
2018-12-12T03:07:02.677Z,2.61
2018-12-12T03:08:02.784Z,2.6
2018-12-12T03:09:02.573Z,2.61
2018-12-12T03:10:02.700Z,2.64
2018-12-12T03:11:02.723Z,2.65
2018-12-12T03:12:02.553Z,2.64
2018-12-12T03:13:02.840Z,2.65
2018-12-12T03:14:02.713Z,2.67
2018-12-12T03:15:02.664Z,2.68
2018-12-12T03:16:02.725Z,2.69
2018-12-12T03:17:02.640Z,2.69
2018-12-12T03:18:02.663Z,2.69
2018-12-12T03:19:02.655Z,2.68
2018-12-12T03:20:02.754Z,2.68
2018-12-12T03:21:02.645Z,2.68
2018-12-12T03:22:02.731Z,2.65
2018-12-12T03:23:02.566Z,2.62
2018-12-12T03:24:02.674Z,2.6
2018-12-12T03:25:02.623Z,2.58
2018-12-12T03:26:03.746Z,2.59
2018-12-12T03:27:02.737Z,2.59
2018-12-12T03:28:02.657Z,2.59
2018-12-12T03:29:02.623Z,2.59
2018-12-12T03:30:03.463Z,2.58
2018-12-12T03:31:02.807Z,2.58
2018-12-12T03:32:02.721Z,2.58
2018-12-12T03:33:02.597Z,2.6
2018-12-12T03:34:02.861Z,2.58
2018-12-12T03:35:02.639Z,2.59
2018-12-12T03:36:04.249Z,2.58
2018-12-12T03:37:02.576Z,2.58
2018-12-12T03:38:03.044Z,2.58
2018-12-12T03:39:02.812Z,2.59
2018-12-12T03:40:02.866Z,2.58
2018-12-12T03:41:02.668Z,2.58
2018-12-12T03:42:02.702Z,2.59
2018-12-12T03:43:03.061Z,2.6
2018-12-12T03:44:02.896Z,2.59
2018-12-12T03:45:03.481Z,2.62
2018-12-12T03:46:02.668Z,2.62
2018-12-12T03:47:02.799Z,2.6
2018-12-12T03:48:02.821Z,2.62
2018-12-12T03:49:02.794Z,2.62
2018-12-12T03:50:02.685Z,2.6
2018-12-12T03:51:03.681Z,2.62
2018-12-12T03:52:02.798Z,2.61
2018-12-12T03:53:03.104Z,2.63
2018-12-12T03:54:02.678Z,2.65
2018-12-12T03:55:02.906Z,2.65
2018-12-12T03:56:02.686Z,2.64
2018-12-12T03:57:02.789Z,2.68
2018-12-12T03:58:02.955Z,2.62
2018-12-12T03:59:02.844Z,2.63
2018-12-12T04:00:02.782Z,2.64
2018-12-12T04:01:02.667Z,2.65
2018-12-12T04:02:02.722Z,2.65
2018-12-12T04:03:02.662Z,2.63
2018-12-12T04:04:02.865Z,2.67
2018-12-12T04:05:02.835Z,2.65
2018-12-12T04:06:02.763Z,2.67
2018-12-12T04:07:02.688Z,2.66
2018-12-12T04:08:02.880Z,2.68
2018-12-12T04:09:02.885Z,2.64
2018-12-12T04:10:02.766Z,2.67
2018-12-12T04:11:02.678Z,2.65
2018-12-12T04:12:02.947Z,2.67
2018-12-12T04:13:02.780Z,2.65
2018-12-12T04:14:02.850Z,2.65
2018-12-12T04:15:02.780Z,2.67
2018-12-12T04:16:02.694Z,2.69
2018-12-12T04:17:02.957Z,2.69
2018-12-12T04:18:02.842Z,2.7
2018-12-12T04:19:02.774Z,2.71
2018-12-12T04:20:02.975Z,2.71
2018-12-12T04:21:02.718Z,2.74
2018-12-12T04:22:02.517Z,2.74
2018-12-12T04:23:02.798Z,2.73
2018-12-12T04:24:02.656Z,2.74
2018-12-12T04:25:02.768Z,2.72
2018-12-12T04:26:02.919Z,2.71
2018-12-12T04:27:02.604Z,2.7
2018-12-12T04:28:02.652Z,2.7
2018-12-12T04:29:02.770Z,2.71
2018-12-12T04:30:02.884Z,2.68
2018-12-12T04:31:02.671Z,2.68
2018-12-12T04:32:03.755Z,2.66
2018-12-12T04:33:02.746Z,2.67
2018-12-12T04:34:03.626Z,2.65
2018-12-12T04:35:02.700Z,2.64
2018-12-12T04:36:02.707Z,2.63
2018-12-12T04:37:02.819Z,2.65
2018-12-12T04:38:02.770Z,2.65
2018-12-12T04:39:03.984Z,2.67
2018-12-12T04:40:02.742Z,2.65
2018-12-12T04:41:02.672Z,2.67
2018-12-12T04:42:02.635Z,2.68
2018-12-12T04:43:02.605Z,2.64
2018-12-12T04:44:02.585Z,2.65
2018-12-12T04:45:02.872Z,2.67
2018-12-12T04:46:05.203Z,2.64
2018-12-12T04:47:03.651Z,2.64
2018-12-12T04:48:02.790Z,2.67
2018-12-12T04:49:02.504Z,2.65
2018-12-12T04:50:02.483Z,2.64
2018-12-12T04:51:02.812Z,2.67
2018-12-12T04:52:02.477Z,2.64
2018-12-12T04:53:02.552Z,2.65
2018-12-12T04:54:02.633Z,2.65
2018-12-12T04:55:02.754Z,2.67
2018-12-12T04:56:02.563Z,2.65
2018-12-12T04:57:02.631Z,2.65
2018-12-12T04:58:03.243Z,2.64
2018-12-12T04:59:02.665Z,2.65
2018-12-12T05:00:03.118Z,2.64
2018-12-12T05:01:02.724Z,2.65
2018-12-12T05:02:02.930Z,2.64
2018-12-12T05:03:03.005Z,2.64
2018-12-12T05:04:02.425Z,2.63
2018-12-12T05:05:02.518Z,2.63
2018-12-12T05:06:02.560Z,2.64
2018-12-12T05:07:02.490Z,2.62
2018-12-12T05:08:02.371Z,2.63
2018-12-12T05:09:02.450Z,2.6
2018-12-12T05:10:02.441Z,2.63
2018-12-12T05:11:02.617Z,2.63
2018-12-12T05:12:03.237Z,2.62
2018-12-12T05:13:03.823Z,2.62
2018-12-12T05:14:02.739Z,2.64
2018-12-12T05:15:02.725Z,2.65
2018-12-12T05:16:02.660Z,2.67
2018-12-12T05:17:02.762Z,2.65
2018-12-12T05:18:02.687Z,2.66
2018-12-12T05:19:02.463Z,2.64
2018-12-12T05:20:02.508Z,2.64
2018-12-12T05:21:02.439Z,2.65
2018-12-12T05:22:02.410Z,2.64
2018-12-12T05:23:02.639Z,2.63
2018-12-12T05:24:02.649Z,2.63
2018-12-12T05:25:02.584Z,2.64
2018-12-12T05:26:02.434Z,2.62
2018-12-12T05:27:02.588Z,2.63
2018-12-12T05:28:02.452Z,2.63
2018-12-12T05:29:02.601Z,2.63
2018-12-12T05:30:02.489Z,2.61
2018-12-12T05:31:02.674Z,2.63
2018-12-12T05:32:02.467Z,2.64
2018-12-12T05:33:02.453Z,2.65
2018-12-12T05:34:02.570Z,2.65
2018-12-12T05:35:02.862Z,2.67
2018-12-12T05:36:02.526Z,2.66
2018-12-12T05:37:02.657Z,2.67
2018-12-12T05:38:02.575Z,2.7
2018-12-12T05:39:02.626Z,2.7
2018-12-12T05:40:02.581Z,2.7
2018-12-12T05:41:02.475Z,2.67
2018-12-12T05:42:02.803Z,2.69
2018-12-12T05:43:02.592Z,2.66
2018-12-12T05:44:02.430Z,2.69
2018-12-12T05:45:02.804Z,2.68
2018-12-12T05:46:02.349Z,2.69
2018-12-12T05:47:02.653Z,2.69
2018-12-12T05:48:02.378Z,2.69
2018-12-12T05:49:02.472Z,2.7
2018-12-12T05:50:02.443Z,2.7
2018-12-12T05:51:02.528Z,2.71
2018-12-12T05:52:02.360Z,2.71
2018-12-12T05:53:02.357Z,2.71
2018-12-12T05:54:02.349Z,2.7
2018-12-12T05:55:02.676Z,2.7
2018-12-12T05:56:03.098Z,2.7
2018-12-12T05:57:02.666Z,2.7
2018-12-12T05:58:02.320Z,2.7
2018-12-12T05:59:02.369Z,2.71
2018-12-12T06:00:02.438Z,2.74
2018-12-12T06:01:02.392Z,2.73
2018-12-12T06:02:02.491Z,2.72
2018-12-12T06:03:02.336Z,2.74
2018-12-12T06:04:02.579Z,2.72
2018-12-12T06:05:02.684Z,2.73
2018-12-12T06:06:02.417Z,2.75
2018-12-12T06:07:02.469Z,2.75
2018-12-12T06:08:02.743Z,2.76
2018-12-12T06:09:02.314Z,2.76
2018-12-12T06:10:02.420Z,2.78
2018-12-12T06:11:02.463Z,2.82
2018-12-12T06:12:02.601Z,2.84
2018-12-12T06:13:02.566Z,2.89
2018-12-12T06:14:02.456Z,2.89
2018-12-12T06:15:02.361Z,2.88
2018-12-12T06:16:02.569Z,2.91
2018-12-12T06:17:02.593Z,2.89
2018-12-12T06:18:02.787Z,2.9
2018-12-12T06:19:02.453Z,2.92
2018-12-12T06:20:02.753Z,2.95
2018-12-12T06:21:03.167Z,2.98
2018-12-12T06:22:10.143Z,2.99
2018-12-12T06:23:02.550Z,2.99
2018-12-12T06:24:02.630Z,2.99
2018-12-12T06:25:02.960Z,3
2018-12-12T06:26:02.308Z,3.01
2018-12-12T06:27:02.578Z,3.04
2018-12-12T06:28:02.462Z,3.03
2018-12-12T06:29:02.317Z,3.06
2018-12-12T06:30:02.616Z,3.06
2018-12-12T06:31:02.448Z,3.05
2018-12-12T06:32:02.305Z,3.05
2018-12-12T06:33:02.278Z,3.05
2018-12-12T06:34:02.397Z,3.05
2018-12-12T06:35:02.309Z,3.05
2018-12-12T06:36:02.875Z,3.04
2018-12-12T06:37:02.431Z,3.05
2018-12-12T06:38:02.559Z,3.06
2018-12-12T06:39:02.422Z,3.08
2018-12-12T06:40:02.467Z,3.08
2018-12-12T06:41:02.629Z,3.12
2018-12-12T06:42:02.518Z,3.1
2018-12-12T06:43:02.508Z,3.09
2018-12-12T06:44:02.361Z,3.11
2018-12-12T06:45:02.465Z,3.1
2018-12-12T06:46:02.453Z,3.11
2018-12-12T06:47:02.316Z,3.12
2018-12-12T06:48:02.452Z,3.14
2018-12-12T06:49:02.442Z,3.11
2018-12-12T06:50:02.399Z,3.11
2018-12-12T06:51:02.336Z,3.14
2018-12-12T06:52:02.388Z,3.12
2018-12-12T06:53:02.367Z,3.1
2018-12-12T06:54:05.419Z,3.07
2018-12-12T06:55:02.455Z,3.09
2018-12-12T06:56:02.342Z,3.1
2018-12-12T06:57:02.264Z,3.07
2018-12-12T06:58:02.620Z,3.06
2018-12-12T06:59:02.668Z,3.06
2018-12-12T07:00:02.340Z,3.02
2018-12-12T07:01:02.569Z,3.02
2018-12-12T07:02:02.432Z,3.04
2018-12-12T07:03:02.542Z,3.02
2018-12-12T07:04:02.294Z,3.03
2018-12-12T07:05:02.286Z,3.05
2018-12-12T07:06:02.255Z,3.03
2018-12-12T07:07:02.650Z,3.05
2018-12-12T07:08:02.557Z,3.05
2018-12-12T07:09:02.442Z,3.04
2018-12-12T07:10:02.426Z,3.03
2018-12-12T07:11:02.551Z,3.05
2018-12-12T07:12:02.292Z,3.06
2018-12-12T07:13:02.620Z,3.05
2018-12-12T07:14:02.503Z,3.04
2018-12-12T07:15:02.260Z,3.06
2018-12-12T07:16:02.406Z,3.02
2018-12-12T07:17:02.768Z,3.02
2018-12-12T07:18:02.396Z,3.02
2018-12-12T07:19:02.257Z,3.04
2018-12-12T07:20:02.352Z,3.05
2018-12-12T07:21:02.728Z,3.05
2018-12-12T07:22:02.803Z,3.06
2018-12-12T07:23:02.209Z,3.05
2018-12-12T07:24:02.247Z,3.06
2018-12-12T07:25:02.362Z,3.09
2018-12-12T07:26:02.551Z,3.08
2018-12-12T07:27:02.284Z,3.08
2018-12-12T07:28:02.839Z,3.07
2018-12-12T07:29:02.542Z,3.07
2018-12-12T07:30:02.523Z,3.07
2018-12-12T07:31:02.374Z,3.05
2018-12-12T07:32:02.435Z,3.05
2018-12-12T07:33:02.550Z,3.04
2018-12-12T07:34:02.420Z,3
2018-12-12T07:35:02.226Z,3
2018-12-12T07:36:02.551Z,2.99
2018-12-12T07:37:03.077Z,2.97
2018-12-12T07:38:02.280Z,2.98
2018-12-12T07:39:02.486Z,2.94
2018-12-12T07:40:02.674Z,2.93
2018-12-12T07:41:02.231Z,2.93
2018-12-12T07:42:02.346Z,2.91
2018-12-12T07:43:02.197Z,2.92
2018-12-12T07:44:02.320Z,2.92
2018-12-12T07:45:02.366Z,2.89
2018-12-12T07:46:02.663Z,2.85
2018-12-12T07:47:03.023Z,2.82
2018-12-12T07:48:02.228Z,2.78
2018-12-12T07:49:03.061Z,2.76
2018-12-12T07:50:02.418Z,2.79
2018-12-12T07:51:02.605Z,2.74
2018-12-12T07:52:02.349Z,2.76
2018-12-12T07:53:02.695Z,2.67
2018-12-12T07:54:02.356Z,2.61
2018-12-12T07:55:02.265Z,2.58
2018-12-12T07:56:02.638Z,2.54
2018-12-12T07:57:02.353Z,2.56
2018-12-12T07:58:02.210Z,2.56
2018-12-12T07:59:02.404Z,2.57
2018-12-12T08:00:02.625Z,2.58
2018-12-12T08:01:03.045Z,2.53
2018-12-12T08:02:02.528Z,2.47
2018-12-12T08:03:06.928Z,2.48
2018-12-12T08:04:02.342Z,2.51
2018-12-12T08:05:02.644Z,2.53
2018-12-12T08:06:02.266Z,2.56
2018-12-12T08:07:02.317Z,2.57
2018-12-12T08:08:02.400Z,2.57
2018-12-12T08:09:02.254Z,2.6
2018-12-12T08:10:02.246Z,2.58
2018-12-12T08:11:02.454Z,2.55
2018-12-12T08:12:02.254Z,2.47
2018-12-12T08:13:02.499Z,2.5
2018-12-12T08:14:02.329Z,2.52
2018-12-12T08:15:02.804Z,2.55
2018-12-12T08:16:02.760Z,2.55
2018-12-12T08:17:02.154Z,2.57
2018-12-12T08:18:04.021Z,2.59
2018-12-12T08:19:02.534Z,2.58
2018-12-12T08:20:02.290Z,2.58
2018-12-12T08:21:02.144Z,2.59
2018-12-12T08:22:02.501Z,2.6
2018-12-12T08:23:02.515Z,2.6
2018-12-12T08:24:03.026Z,2.6
2018-12-12T08:25:02.403Z,2.63
2018-12-12T08:26:03.658Z,2.65
2018-12-12T08:27:02.186Z,2.64
2018-12-12T08:28:02.641Z,2.68
2018-12-12T08:29:02.186Z,2.69
2018-12-12T08:30:02.619Z,2.7
2018-12-12T08:31:02.684Z,2.7
2018-12-12T08:32:02.457Z,2.73
2018-12-12T08:33:02.159Z,2.74
2018-12-12T08:34:02.154Z,2.75
2018-12-12T08:35:02.222Z,2.76
2018-12-12T08:36:02.278Z,2.79
2018-12-12T08:37:02.726Z,2.77
2018-12-12T08:38:02.106Z,2.8
2018-12-12T08:39:02.684Z,2.8
2018-12-12T08:40:02.288Z,2.81
2018-12-12T08:41:02.665Z,2.82
2018-12-12T08:42:02.186Z,2.82
2018-12-12T08:43:03.030Z,2.81
2018-12-12T08:44:02.281Z,2.8
2018-12-12T08:45:02.198Z,2.81
2018-12-12T08:46:02.229Z,2.8
2018-12-12T08:47:02.253Z,2.8
2018-12-12T08:48:02.469Z,2.8
2018-12-12T08:49:02.148Z,2.8
2018-12-12T08:50:02.330Z,2.8
2018-12-12T08:51:02.212Z,2.8
2018-12-12T08:52:02.154Z,2.79
2018-12-12T08:53:02.289Z,2.79
2018-12-12T08:54:02.533Z,2.78
2018-12-12T08:55:02.984Z,2.78
2018-12-12T08:56:03.645Z,2.81
2018-12-12T08:57:02.383Z,2.81
2018-12-12T08:58:02.214Z,2.81
2018-12-12T08:59:02.289Z,2.81
2018-12-12T09:00:02.276Z,2.81
2018-12-12T09:01:02.479Z,2.8
2018-12-12T09:02:02.275Z,2.79
2018-12-12T09:03:03.631Z,2.81
2018-12-12T09:04:02.392Z,2.81
2018-12-12T09:05:02.324Z,2.82
2018-12-12T09:06:02.212Z,2.82
2018-12-12T09:07:02.145Z,2.82
2018-12-12T09:08:02.377Z,2.78
2018-12-12T09:09:02.156Z,2.79
2018-12-12T09:10:02.152Z,2.75
2018-12-12T09:11:02.258Z,2.76
2018-12-12T09:12:02.639Z,2.74
2018-12-12T09:13:02.951Z,2.76
2018-12-12T09:14:02.386Z,2.76
2018-12-12T09:15:02.384Z,2.76
2018-12-12T09:16:02.338Z,2.76
2018-12-12T09:17:02.345Z,2.76
2018-12-12T09:18:02.494Z,2.78
2018-12-12T09:19:02.244Z,2.8
2018-12-12T09:20:02.471Z,2.78
2018-12-12T09:21:02.315Z,2.82
2018-12-12T09:22:02.041Z,2.82
2018-12-12T09:23:02.151Z,2.86
2018-12-12T09:24:02.237Z,2.85
2018-12-12T09:25:02.446Z,2.84
2018-12-12T09:26:02.479Z,2.89
2018-12-12T09:27:02.252Z,2.89
2018-12-12T09:28:02.268Z,2.86
2018-12-12T09:29:02.436Z,2.87
2018-12-12T09:30:02.546Z,2.91
2018-12-12T09:31:02.180Z,2.91
2018-12-12T09:32:02.189Z,2.9
2018-12-12T09:33:02.362Z,2.94
2018-12-12T09:34:02.374Z,2.86
2018-12-12T09:35:02.155Z,2.87
2018-12-12T09:36:02.321Z,2.88
2018-12-12T09:37:02.394Z,2.89
2018-12-12T09:38:02.289Z,2.93
2018-12-12T09:39:02.471Z,2.97
2018-12-12T09:40:02.139Z,3.01
2018-12-12T09:41:02.094Z,3.02
2018-12-12T09:42:02.415Z,3.04
2018-12-12T09:43:02.335Z,3.05
2018-12-12T09:44:02.204Z,3.08
2018-12-12T09:45:02.259Z,3.07
2018-12-12T09:46:02.184Z,3.06
2018-12-12T09:47:02.443Z,3.03
2018-12-12T09:48:02.503Z,3.04
2018-12-12T09:49:02.204Z,3.03
2018-12-12T09:50:02.384Z,3.03
2018-12-12T09:51:07.914Z,3.03
2018-12-12T09:52:02.140Z,3.04
2018-12-12T09:53:02.160Z,3.07
2018-12-12T09:54:02.010Z,3.12
2018-12-12T09:55:02.293Z,3.08
2018-12-12T09:56:02.436Z,3.13
2018-12-12T09:57:02.340Z,3.18
2018-12-12T09:58:02.082Z,3.2
2018-12-12T09:59:02.120Z,3.23
2018-12-12T10:00:02.128Z,3.26
2018-12-12T10:01:02.101Z,3.27
2018-12-12T10:02:02.239Z,3.31
2018-12-12T10:03:02.171Z,3.33
2018-12-12T10:04:01.983Z,3.33
2018-12-12T10:05:02.377Z,3.37
2018-12-12T10:06:02.176Z,3.39
2018-12-12T10:07:02.009Z,3.44
2018-12-12T10:08:02.101Z,3.45
2018-12-12T10:09:01.978Z,3.49
2018-12-12T10:10:02.151Z,3.53
2018-12-12T10:11:02.178Z,3.58
2018-12-12T10:12:02.313Z,3.58
2018-12-12T10:13:02.133Z,3.62
2018-12-12T10:14:01.950Z,3.61
2018-12-12T10:15:02.029Z,3.63
2018-12-12T10:16:02.006Z,3.61
2018-12-12T10:17:02.227Z,3.62
2018-12-12T10:18:02.350Z,3.64
2018-12-12T10:19:02.183Z,3.6
2018-12-12T10:20:02.344Z,3.64
2018-12-12T10:21:02.376Z,3.56
2018-12-12T10:22:02.388Z,3.52
2018-12-12T10:23:02.137Z,3.54
2018-12-12T10:24:02.400Z,3.55
2018-12-12T10:25:02.270Z,3.58
2018-12-12T10:26:02.539Z,3.6
2018-12-12T10:27:02.380Z,3.57
2018-12-12T10:28:02.145Z,3.48
2018-12-12T10:29:02.778Z,3.47
2018-12-12T10:30:02.191Z,3.49
2018-12-12T10:31:02.144Z,3.51
2018-12-12T10:32:02.013Z,3.47
2018-12-12T10:33:02.317Z,3.5
2018-12-12T10:34:02.830Z,3.53
2018-12-12T10:35:02.173Z,3.55
2018-12-12T10:36:02.235Z,3.55
2018-12-12T10:37:01.990Z,3.56
2018-12-12T10:38:02.791Z,3.58
2018-12-12T10:39:02.242Z,3.61
2018-12-12T10:40:02.469Z,3.58
2018-12-12T10:41:02.497Z,3.58
2018-12-12T10:42:02.292Z,3.56
2018-12-12T10:43:01.985Z,3.56
2018-12-12T10:44:02.006Z,3.57
2018-12-12T10:45:02.387Z,3.56
2018-12-12T10:46:02.532Z,3.57
2018-12-12T10:47:02.091Z,3.63
2018-12-12T10:48:02.106Z,3.62
2018-12-12T10:49:02.225Z,3.64
2018-12-12T10:50:02.257Z,3.65
2018-12-12T10:51:01.895Z,3.68
2018-12-12T10:52:01.949Z,3.68
2018-12-12T10:53:02.378Z,3.69
2018-12-12T10:54:02.431Z,3.71
2018-12-12T10:55:02.200Z,3.77
2018-12-12T10:56:02.406Z,3.77
2018-12-12T10:57:02.232Z,3.79
2018-12-12T10:58:02.651Z,3.84
2018-12-12T10:59:01.955Z,3.78
2018-12-12T11:00:02.214Z,3.85
2018-12-12T11:01:02.186Z,3.87
2018-12-12T11:02:01.956Z,3.87
2018-12-12T11:03:02.306Z,3.87
2018-12-12T11:04:02.225Z,3.96
2018-12-12T11:05:01.984Z,4
2018-12-12T11:06:02.223Z,4.01
2018-12-12T11:07:02.470Z,4
2018-12-12T11:08:02.301Z,4.06
2018-12-12T11:09:01.914Z,4.07
2018-12-12T11:10:02.009Z,4.09
2018-12-12T11:11:02.217Z,4.1
2018-12-12T11:12:02.416Z,4.1
2018-12-12T11:13:02.272Z,4.09
2018-12-12T11:14:01.933Z,4.06
2018-12-12T11:15:02.044Z,4.1
2018-12-12T11:16:01.877Z,4.12
2018-12-12T11:17:02.382Z,4.07
2018-12-12T11:18:02.219Z,4.15
2018-12-12T11:19:02.692Z,4.19
2018-12-12T11:20:02.538Z,4.18
2018-12-12T11:21:03.877Z,4.2
2018-12-12T11:22:15.516Z,4.2
2018-12-12T11:23:02.066Z,4.19
2018-12-12T11:24:04.665Z,4.19
2018-12-12T11:25:02.172Z,4.16
2018-12-12T11:26:02.161Z,4.2
2018-12-12T11:27:01.975Z,4.27
2018-12-12T11:28:01.894Z,4.31
2018-12-12T11:29:02.094Z,4.26
2018-12-12T11:30:01.945Z,4.24
2018-12-12T11:31:02.205Z,4.27
2018-12-12T11:32:01.923Z,4.35
2018-12-12T11:33:03.171Z,4.41
2018-12-12T11:34:01.906Z,4.38
2018-12-12T11:35:02.729Z,4.43
2018-12-12T11:36:01.893Z,4.49
2018-12-12T11:37:01.855Z,4.54
2018-12-12T11:38:01.933Z,4.54
2018-12-12T11:39:01.902Z,4.55
2018-12-12T11:40:02.367Z,4.5
2018-12-12T11:41:02.134Z,4.42
2018-12-12T11:42:01.875Z,4.5
2018-12-12T11:43:02.630Z,4.56
2018-12-12T11:44:01.851Z,4.57
2018-12-12T11:45:02.031Z,4.62
2018-12-12T11:46:02.006Z,4.71
2018-12-12T11:47:01.857Z,4.73
2018-12-12T11:48:01.908Z,4.78
2018-12-12T11:49:01.883Z,4.79
2018-12-12T11:50:02.428Z,4.87
2018-12-12T11:51:02.208Z,4.74
2018-12-12T11:52:01.962Z,4.72
2018-12-12T11:53:02.799Z,4.79
2018-12-12T11:54:01.835Z,4.79
2018-12-12T11:55:01.977Z,4.82
2018-12-12T11:56:02.009Z,4.73
2018-12-12T11:57:01.807Z,4.74
2018-12-12T11:58:02.168Z,4.7
2018-12-12T11:59:02.662Z,4.64
2018-12-12T12:00:02.339Z,4.55
2018-12-12T12:01:01.926Z,4.58
2018-12-12T12:02:01.986Z,4.61
2018-12-12T12:03:01.903Z,4.65
2018-12-12T12:04:01.876Z,4.59
2018-12-12T12:05:02.055Z,4.6
2018-12-12T12:06:02.245Z,4.66
2018-12-12T12:07:01.933Z,4.67
2018-12-12T12:08:01.959Z,4.64
2018-12-12T12:09:02.161Z,4.67
2018-12-12T12:10:02.108Z,4.66
2018-12-12T12:11:01.892Z,4.73
2018-12-12T12:12:02.079Z,4.78
2018-12-12T12:13:02.649Z,4.82
2018-12-12T12:14:02.343Z,4.7
2018-12-12T12:15:01.907Z,4.67
2018-12-12T12:16:01.901Z,4.66
2018-12-12T12:17:01.807Z,4.71
2018-12-12T12:18:01.973Z,4.74
2018-12-12T12:19:01.872Z,4.77
2018-12-12T12:20:01.922Z,4.79
2018-12-12T12:21:02.080Z,4.77
2018-12-12T12:22:01.973Z,4.78
2018-12-12T12:23:01.938Z,4.83
2018-12-12T12:24:01.917Z,4.85
2018-12-12T12:25:01.833Z,4.89
2018-12-12T12:26:01.997Z,4.94
2018-12-12T12:27:01.896Z,4.96
2018-12-12T12:28:01.894Z,4.99
2018-12-12T12:29:02.153Z,4.98
2018-12-12T12:30:02.077Z,5
2018-12-12T12:31:01.804Z,4.97
2018-12-12T12:32:01.954Z,4.99
2018-12-12T12:33:02.058Z,5.01
2018-12-12T12:34:03.759Z,5.01
2018-12-12T12:35:01.837Z,4.99
2018-12-12T12:36:01.827Z,4.95
2018-12-12T12:37:02.664Z,4.92
2018-12-12T12:38:01.924Z,4.95
2018-12-12T12:39:01.922Z,4.95
2018-12-12T12:40:01.849Z,4.95
2018-12-12T12:41:01.809Z,4.94
2018-12-12T12:42:01.852Z,4.9
2018-12-12T12:43:01.771Z,4.88
2018-12-12T12:44:02.093Z,4.86
2018-12-12T12:45:01.774Z,4.78
2018-12-12T12:46:02.117Z,4.72
2018-12-12T12:47:01.765Z,4.72
2018-12-12T12:48:01.963Z,4.78
2018-12-12T12:49:01.950Z,4.77
2018-12-12T12:50:02.000Z,4.77
2018-12-12T12:51:02.735Z,4.83
2018-12-12T12:52:01.762Z,4.77
2018-12-12T12:53:02.467Z,4.75
2018-12-12T12:54:01.998Z,4.69
2018-12-12T12:55:01.999Z,4.74
2018-12-12T12:56:01.864Z,4.79
2018-12-12T12:57:01.917Z,4.67
2018-12-12T12:58:02.298Z,4.71
2018-12-12T12:59:01.799Z,4.7
2018-12-12T13:00:01.801Z,4.64
2018-12-12T13:01:01.882Z,4.63
2018-12-12T13:02:01.899Z,4.69
2018-12-12T13:03:02.170Z,4.72
2018-12-12T13:04:01.901Z,4.76
2018-12-12T13:05:01.793Z,4.75
2018-12-12T13:06:01.777Z,4.73
2018-12-12T13:07:01.719Z,4.71
2018-12-12T13:08:02.035Z,4.78
2018-12-12T13:09:01.786Z,4.79
2018-12-12T13:10:02.063Z,4.77
2018-12-12T13:11:01.921Z,4.78
2018-12-12T13:12:03.229Z,4.8
2018-12-12T13:13:02.257Z,4.84
2018-12-12T13:14:02.012Z,4.77
2018-12-12T13:15:02.450Z,4.66
2018-12-12T13:16:01.778Z,4.6
2018-12-12T13:17:01.789Z,4.6
2018-12-12T13:18:01.947Z,4.56
2018-12-12T13:19:02.025Z,4.55
2018-12-12T13:20:01.989Z,4.54
2018-12-12T13:21:01.789Z,4.54